Time;durP1;ratioP1;P1;durP2;ratioP2;P2;SDS_P1;SDS_P2;PMS_P1;PMS_P2;Temp;Humidity;BMP_temperature;BMP_pressure;BME280_temperature;BME280_humidity;BME280_pressure;Samples;Min_cycle;Max_cycle;Signal;HPM_P1;HPM_P2
2021/06/19 00:01:04;;;;;;;8.10;3.13;;;;;;;22.94;63.34;96624.66;5039646;28;20398;-64
2021/06/19 00:03:29;;;;;;;8.95;3.08;;;;;;;22.87;63.67;96627.69;5041669;28;20194;-65
2021/06/19 00:05:55;;;;;;;12.35;2.80;;;;;;;22.47;64.97;96631.75;5041177;28;20131;-64
2021/06/19 00:08:23;;;;;;;7.25;2.50;;;;;;;22.21;66.16;96642.09;5039055;28;20504;-65
2021/06/19 00:10:56;;;;;;;7.60;3.40;;;;;;;22.14;66.86;96643.09;5036723;28;20092;-64
2021/06/19 00:13:21;;;;;;;5.88;2.75;;;;;;;22.17;66.81;96649.81;5050269;28;20100;-65
2021/06/19 00:15:47;;;;;;;10.80;3.58;;;;;;;22.12;66.94;96658.72;5064110;28;20045;-65
2021/06/19 00:18:13;;;;;;;6.47;3.00;;;;;;;22.09;67.15;96659.59;5049353;28;20108;-64
2021/06/19 00:20:39;;;;;;;7.18;2.85;;;;;;;22.13;66.61;96665.88;5031590;28;20053;-64
2021/06/19 00:23:05;;;;;;;8.05;2.90;;;;;;;22.12;66.45;96667.09;5019589;28;20052;-62
2021/06/19 00:25:30;;;;;;;7.82;2.88;;;;;;;22.11;66.37;96671.09;5023045;28;20045;-63
2021/06/19 00:27:56;;;;;;;10.40;3.15;;;;;;;22.19;66.19;96671.69;5032652;28;20045;-67
2021/06/19 00:30:22;;;;;;;8.30;2.70;;;;;;;22.14;65.96;96675.78;5030112;28;20049;-65
2021/06/19 00:32:50;;;;;;;8.80;2.90;;;;;;;22.20;65.84;96690.78;5012637;28;20069;-64
2021/06/19 00:35:16;;;;;;;9.82;3.22;;;;;;;22.24;65.41;96688.66;5005179;28;20052;-65
2021/06/19 00:37:42;;;;;;;7.40;2.80;;;;;;;22.24;65.75;96697.00;4992643;28;20487;-63
2021/06/19 00:40:11;;;;;;;8.82;3.00;;;;;;;22.25;65.88;96686.63;5023063;28;20080;-65
2021/06/19 00:42:37;;;;;;;10.20;4.07;;;;;;;22.31;65.83;96680.09;5034402;28;20041;-66
2021/06/19 00:45:07;;;;;;;7.68;3.47;;;;;;;22.38;65.67;96681.84;5011242;28;20554;-62
2021/06/19 00:47:38;;;;;;;6.18;2.65;;;;;;;22.33;65.53;96686.00;5033884;28;20140;-66
2021/06/19 00:50:04;;;;;;;9.80;2.75;;;;;;;22.21;66.50;96683.16;5030089;28;20108;-62
2021/06/19 00:52:30;;;;;;;14.23;3.35;;;;;;;22.15;67.11;96682.94;5040810;28;20045;-65
2021/06/19 00:54:56;;;;;;;5.85;3.00;;;;;;;22.02;67.32;96694.09;5047828;28;20048;-66
2021/06/19 00:57:22;;;;;;;7.30;2.97;;;;;;;22.18;66.82;96689.63;5012247;28;20583;-64
2021/06/19 00:59:48;;;;;;;10.27;3.28;;;;;;;22.37;66.22;96699.84;5025620;28;20033;-65
2021/06/19 01:02:14;;;;;;;9.93;2.78;;;;;;;22.36;65.75;96689.91;5030959;28;20042;-66
2021/06/19 01:04:39;;;;;;;6.82;3.25;;;;;;;22.26;66.01;96677.84;5002421;28;20060;-66
2021/06/19 01:07:05;;;;;;;13.05;3.22;;;;;;;22.23;66.12;96683.50;5014236;28;20049;-65
2021/06/19 01:09:31;;;;;;;9.50;2.90;;;;;;;22.18;66.11;96672.91;5025519;28;20413;-65
2021/06/19 01:12:02;;;;;;;8.85;3.17;;;;;;;22.10;66.89;96675.13;5038309;28;20136;-66
2021/06/19 01:14:27;;;;;;;7.88;2.85;;;;;;;21.97;67.32;96677.91;5036707;28;20041;-66
2021/06/19 01:16:54;;;;;;;7.50;2.90;;;;;;;21.75;68.46;96672.94;5034068;28;20141;-64
2021/06/19 01:19:19;;;;;;;8.65;3.45;;;;;;;21.66;68.89;96677.56;5021326;28;20128;-65
2021/06/19 01:21:45;;;;;;;8.90;2.78;;;;;;;21.81;69.00;96675.19;5025010;28;20196;-66
2021/06/19 01:24:15;;;;;;;10.75;3.97;;;;;;;21.89;69.01;96670.94;5002417;28;20042;-64
2021/06/19 01:26:40;;;;;;;;;;;;;;;21.86;68.94;96667.06;5026834;28;20101;-66
2021/06/19 01:29:06;;;;;;;9.10;3.03;;;;;;;22.00;68.79;96665.06;5018199;28;20461;-63
2021/06/19 01:31:32;;;;;;;8.23;3.00;;;;;;;22.06;67.99;96680.03;5024319;28;20049;-65
2021/06/19 01:33:58;;;;;;;6.53;3.10;;;;;;;21.80;68.96;96679.97;5022596;28;20060;-64
2021/06/19 01:36:24;;;;;;;6.68;2.88;;;;;;;21.76;69.53;96680.06;5018250;28;20610;-64
2021/06/19 01:38:54;;;;;;;7.30;2.90;;;;;;;21.80;69.79;96673.59;5024730;28;20112;-65
2021/06/19 01:41:26;;;;;;;10.75;3.75;;;;;;;21.71;69.87;96675.03;5019732;28;20077;-66
2021/06/19 01:44:11;;;;;;;8.50;2.97;;;;;;;21.74;70.00;96676.94;5025470;28;20038;-63
2021/06/19 01:46:40;;;;;;;10.18;2.72;;;;;;;21.83;70.33;96681.88;5025288;28;20052;-66
2021/06/19 01:49:05;;;;;;;9.63;3.03;;;;;;;21.69;69.91;96676.69;5019303;28;20061;-67
2021/06/19 01:51:31;;;;;;;7.30;2.78;;;;;;;21.58;70.72;96688.91;5008698;28;20076;-65
2021/06/19 01:53:57;;;;;;;6.38;2.80;;;;;;;21.90;68.21;96676.09;5023541;28;20041;-66
2021/06/19 01:56:24;;;;;;;8.00;2.80;;;;;;;21.90;68.06;96669.75;5002164;28;20512;-66
2021/06/19 01:58:50;;;;;;;10.73;3.40;;;;;;;;;;5034489;28;20036;-64
2021/06/19 02:01:16;;;;;;;9.93;4.13;;;;;;;21.52;69.44;96668.41;5038295;28;20067;-66
2021/06/19 02:03:42;;;;;;;12.07;6.15;;;;;;;21.42;69.97;96674.22;5047093;28;20041;-64
2021/06/19 02:06:09;;;;;;;6.90;3.30;;;;;;;21.36;70.65;96668.41;5046878;28;20037;-63
2021/06/19 02:08:35;;;;;;;8.05;3.47;;;;;;;21.24;71.08;96671.94;5047048;28;20064;-66
2021/06/19 02:11:02;;;;;;;9.90;3.13;;;;;;;21.06;72.46;96678.72;5030725;28;20443;-67
2021/06/19 02:13:29;;;;;;;6.18;2.80;;;;;;;20.99;72.70;96679.72;5030627;28;20371;-67
2021/06/19 02:15:55;;;;;;;5.97;2.85;;;;;;;21.00;73.24;96686.06;5042358;28;20045;-65
2021/06/19 02:18:21;;;;;;;8.82;3.50;;;;;;;21.16;72.98;96688.03;5038455;28;20037;-63
2021/06/19 02:20:51;;;;;;;13.57;3.60;;;;;;;21.03;72.90;96689.97;5045227;28;20194;-66
2021/06/19 02:23:17;;;;;;;8.82;3.20;;;;;;;20.75;74.48;96693.00;5038940;28;20037;-64
2021/06/19 02:25:43;;;;;;;7.40;3.50;;;;;;;20.75;74.70;96686.66;5045570;28;20041;-67
2021/06/19 02:28:10;;;;;;;9.35;3.33;;;;;;;20.82;74.58;96692.06;5024619;28;20065;-64
2021/06/19 02:30:43;;;;;;;13.15;3.20;;;;;;;20.18;77.34;96697.06;5027302;28;20049;-63
2021/06/19 02:33:09;;;;;;;14.10;4.10;;;;;;;19.93;78.80;96703.94;5022335;28;20152;-63
2021/06/19 02:35:36;;;;;;;10.52;3.28;;;;;;;19.93;79.20;96698.38;5027148;28;20128;-64
2021/06/19 02:38:03;;;;;;;15.50;3.42;;;;;;;20.13;79.09;96701.16;5025292;28;20037;-62
2021/06/19 02:40:30;;;;;;;11.40;3.92;;;;;;;20.23;78.40;96691.78;5027538;28;20037;-64
2021/06/19 02:42:56;;;;;;;7.88;3.28;;;;;;;20.25;78.22;96694.91;5031301;28;20122;-62
2021/06/19 02:45:23;;;;;;;13.27;3.90;;;;;;;20.26;77.95;96695.72;5031570;28;20462;-62
2021/06/19 02:47:52;;;;;;;19.88;3.92;;;;;;;20.03;78.65;96708.50;5037535;28;20045;-62
2021/06/19 02:50:21;;;;;;;14.13;4.00;;;;;;;19.77;80.26;96726.09;5023790;28;20045;-64
2021/06/19 02:52:46;;;;;;;11.77;3.83;;;;;;;19.63;81.16;96716.03;5029944;28;20490;-64
2021/06/19 02:55:17;;;;;;;7.90;4.18;;;;;;;19.20;83.02;96719.59;5016509;28;20187;-64
2021/06/19 02:57:44;;;;;;;10.40;3.88;;;;;;;19.11;83.99;96709.03;5031075;28;20041;-65
2021/06/19 03:00:11;;;;;;;12.90;4.03;;;;;;;19.18;83.76;96702.59;5014569;28;20040;-63
2021/06/19 03:02:37;;;;;;;10.20;3.60;;;;;;;19.30;83.08;96707.50;5021438;28;20044;-64
2021/06/19 03:05:05;;;;;;;7.93;3.90;;;;;;;19.35;82.91;96720.13;5028708;28;20041;-61
2021/06/19 03:07:31;;;;;;;10.38;4.07;;;;;;;19.38;82.29;96720.06;5022433;28;20353;-63
2021/06/19 03:09:56;;;;;;;15.05;4.03;;;;;;;19.46;82.54;96707.63;5031184;28;20045;-62
2021/06/19 03:12:22;;;;;;;10.93;3.42;;;;;;;19.45;82.78;96705.25;5024747;28;20068;-63
2021/06/19 03:14:50;;;;;;;9.27;3.83;;;;;;;18.97;85.26;96706.50;5024036;28;20518;-63
2021/06/19 03:17:16;;;;;;;9.07;3.75;;;;;;;18.98;85.50;96713.59;5016758;28;20041;-65
2021/06/19 03:19:41;;;;;;;11.07;4.20;;;;;;;19.31;84.16;96714.63;5023061;28;20049;-62
2021/06/19 03:22:07;;;;;;;7.65;3.60;;;;;;;19.39;83.28;96718.06;5020226;28;20045;-60
2021/06/19 03:24:42;;;;;;;10.48;4.03;;;;;;;19.41;82.75;96726.75;5033153;28;20037;-64
2021/06/19 03:27:09;;;;;;;9.25;3.65;;;;;;;19.51;83.17;96731.34;5036457;28;20048;-64
2021/06/19 03:29:35;;;;;;;11.25;3.83;;;;;;;19.71;82.33;96739.69;5033114;28;20045;-64
2021/06/19 03:32:03;;;;;;;7.63;3.63;;;;;;;19.96;81.09;96747.56;5027909;28;20041;-64
2021/06/19 03:34:31;;;;;;;7.05;3.30;;;;;;;20.12;80.02;96762.75;5051834;28;20037;-64
2021/06/19 03:37:00;;;;;;;7.72;3.17;;;;;;;20.26;78.88;96759.69;5039106;28;20433;-65
2021/06/19 03:39:26;;;;;;;8.38;3.40;;;;;;;20.19;79.21;96763.38;5029226;28;20491;-65
2021/06/19 03:41:52;;;;;;;11.10;3.63;;;;;;;20.21;79.07;96768.53;5035206;28;20049;-64
2021/06/19 03:44:18;;;;;;;12.52;4.40;;;;;;;20.16;79.00;96761.44;5026616;28;20141;-64
2021/06/19 03:46:43;;;;;;;11.23;5.00;;;;;;;20.22;79.01;96761.72;5007710;28;20124;-65
2021/06/19 03:49:09;;;;;;;10.45;4.28;;;;;;;20.28;78.78;96770.38;5000127;28;20082;-63
2021/06/19 03:51:34;;;;;;;9.18;4.05;;;;;;;20.31;78.36;96773.09;5022606;28;20047;-64
2021/06/19 03:54:00;;;;;;;12.60;4.18;;;;;;;20.37;78.24;96774.13;5019762;28;20045;-64
2021/06/19 03:56:27;;;;;;;9.60;4.57;;;;;;;20.42;78.00;96773.63;5033486;28;20041;-64
2021/06/19 03:58:52;;;;;;;11.20;4.43;;;;;;;19.48;82.12;96769.09;5025243;28;20037;-64
2021/06/19 04:01:18;;;;;;;11.10;5.30;;;;;;;19.04;84.66;96773.00;5026822;28;20474;-65
2021/06/19 04:03:43;;;;;;;13.05;4.68;;;;;;;19.20;84.36;96770.34;5041603;28;20041;-64
2021/06/19 04:06:09;;;;;;;11.55;5.38;;;;;;;19.68;81.93;96769.13;5033559;28;20040;-62
2021/06/19 04:08:34;;;;;;;12.93;4.32;;;;;;;19.91;81.01;96770.28;5028235;28;20102;-64
2021/06/19 04:11:00;;;;;;;8.20;3.92;;;;;;;20.18;80.30;96766.59;5027141;28;20087;-64
2021/06/19 04:13:25;;;;;;;9.13;3.95;;;;;;;20.33;79.26;96767.88;5015187;28;20056;-64
2021/06/19 04:15:51;;;;;;;14.77;4.43;;;;;;;20.57;78.40;96762.97;5025056;28;20049;-64
2021/06/19 04:18:16;;;;;;;8.32;4.25;;;;;;;20.89;76.88;96769.06;5034277;28;20045;-64
2021/06/19 04:20:42;;;;;;;12.30;4.05;;;;;;;21.26;75.32;96770.53;5030257;28;20052;-65
2021/06/19 04:23:07;;;;;;;9.70;4.65;;;;;;;21.29;74.45;96764.09;5023329;28;20065;-64
2021/06/19 04:25:33;;;;;;;11.02;4.35;;;;;;;21.54;74.32;96765.50;5036805;28;20045;-64
2021/06/19 04:27:59;;;;;;;12.18;4.63;;;;;;;21.55;73.36;96765.06;5034864;28;20037;-64
2021/06/19 04:30:26;;;;;;;13.80;5.38;;;;;;;21.77;73.04;96768.06;5026097;28;20536;-64
2021/06/19 04:32:53;;;;;;;10.52;4.15;;;;;;;21.57;74.34;96768.19;5003523;28;20038;-64
2021/06/19 04:35:19;;;;;;;14.85;4.57;;;;;;;22.07;72.95;96777.19;5017503;28;20048;-64
2021/06/19 04:37:45;;;;;;;14.65;4.13;;;;;;;22.31;71.70;96772.16;5031656;28;20049;-64
2021/06/19 04:40:20;;;;;;;11.00;3.92;;;;;;;22.07;72.28;96779.97;5032665;28;20053;-64
2021/06/19 04:42:55;;;;;;;7.60;4.22;;;;;;;21.86;72.94;96778.56;5032633;28;20075;-64
2021/06/19 04:45:21;;;;;;;10.98;5.13;;;;;;;22.42;71.63;96782.19;5016407;28;20408;-63
2021/06/19 04:47:47;;;;;;;9.70;4.75;;;;;;;23.20;68.69;96789.44;5012476;28;20394;-63
2021/06/19 04:50:12;;;;;;;8.30;4.05;;;;;;;23.83;66.45;96794.09;5036499;28;20045;-64
2021/06/19 04:52:45;;;;;;;9.10;3.78;;;;;;;24.12;65.52;96789.53;5034293;28;20132;-64
2021/06/19 04:55:14;;;;;;;9.18;4.43;;;;;;;24.43;64.02;96786.75;5023324;28;20092;-64
2021/06/19 04:57:40;;;;;;;12.20;3.60;;;;;;;24.97;62.54;96779.94;5037705;28;20501;-65
2021/06/19 05:00:06;;;;;;;8.70;3.60;;;;;;;25.42;59.65;96783.34;5033992;28;20122;-64
2021/06/19 05:02:32;;;;;;;6.65;3.53;;;;;;;25.94;59.04;96778.75;5025665;28;20083;-63
2021/06/19 05:04:57;;;;;;;8.57;3.42;;;;;;;25.88;58.81;96779.81;5040995;28;20045;-64
2021/06/19 05:07:23;;;;;;;8.45;3.40;;;;;;;25.69;59.33;96781.81;5029897;28;20055;-64
2021/06/19 05:09:48;;;;;;;8.95;4.10;;;;;;;24.22;65.05;96791.94;5009792;28;20052;-63
2021/06/19 05:12:13;;;;;;;8.40;3.78;;;;;;;24.74;64.10;96783.22;5030791;28;20048;-65
2021/06/19 05:14:39;;;;;;;11.73;3.70;;;;;;;25.73;60.29;96786.03;5032644;28;20042;-65
2021/06/19 05:17:04;;;;;;;9.63;3.45;;;;;;;26.73;56.67;96787.72;5034652;28;20037;-61
2021/06/19 05:19:31;;;;;;;7.30;2.88;;;;;;;27.20;55.08;96780.63;5003709;28;20045;-64
2021/06/19 05:21:57;;;;;;;8.20;3.28;;;;;;;27.54;53.69;96793.44;5024060;28;20052;-64
2021/06/19 05:24:22;;;;;;;9.32;3.50;;;;;;;27.78;52.67;96793.41;5028934;28;20176;-64
2021/06/19 05:26:48;;;;;;;6.88;3.35;;;;;;;27.60;53.52;96797.16;5044998;28;20102;-64
2021/06/19 05:29:21;;;;;;;12.25;3.75;;;;;;;27.46;54.33;96798.66;5027288;28;20036;-64
2021/06/19 05:31:47;;;;;;;11.70;3.90;;;;;;;27.02;55.43;96804.75;5023127;28;20073;-65
2021/06/19 05:34:16;;;;;;;12.48;4.20;;;;;;;25.09;62.19;96816.69;5018447;28;20050;-63
2021/06/19 05:36:42;;;;;;;12.90;4.47;;;;;;;24.70;64.30;96813.41;5047085;28;20060;-64
2021/06/19 05:39:08;;;;;;;10.43;3.88;;;;;;;24.99;63.50;96811.06;5011226;28;20042;-64
2021/06/19 05:41:33;;;;;;;10.32;4.97;;;;;;;24.52;65.11;96805.66;5024261;28;20448;-64
2021/06/19 05:43:59;;;;;;;10.55;5.22;;;;;;;23.58;69.88;96808.91;5025952;28;20037;-61
2021/06/19 05:46:24;;;;;;;16.02;4.80;;;;;;;23.56;69.85;96805.78;5030457;28;20052;-64
2021/06/19 05:48:56;;;;;;;15.70;4.35;;;;;;;23.42;69.58;96809.06;5047241;28;20049;-64
2021/06/19 05:51:21;;;;;;;8.40;3.88;;;;;;;23.46;69.93;96816.09;5014490;28;20061;-64
2021/06/19 05:53:47;;;;;;;11.18;4.20;;;;;;;23.86;68.80;96809.22;5039176;28;20049;-64
2021/06/19 05:56:12;;;;;;;9.20;4.10;;;;;;;23.92;68.54;96815.78;5041937;28;20044;-62
2021/06/19 05:58:38;;;;;;;9.45;4.68;;;;;;;22.84;73.70;96810.06;5034638;28;20049;-63
2021/06/19 06:01:03;;;;;;;16.10;5.15;;;;;;;22.96;73.46;96814.88;5032888;28;20068;-62
2021/06/19 06:03:38;;;;;;;12.77;5.60;;;;;;;22.86;74.84;96813.19;5020260;28;20045;-63
2021/06/19 06:06:03;;;;;;;13.43;4.85;;;;;;;23.12;73.59;96807.63;5032998;28;20056;-60
2021/06/19 06:08:29;;;;;;;9.30;4.80;;;;;;;23.66;70.80;96798.28;5039397;28;20077;-63
2021/06/19 06:10:55;;;;;;;13.05;4.60;;;;;;;23.95;70.04;96797.31;5032797;28;20140;-64
2021/06/19 06:13:20;;;;;;;9.40;4.97;;;;;;;24.38;68.13;96801.34;5017797;28;20053;-63
2021/06/19 06:15:46;;;;;;;9.70;4.93;;;;;;;24.85;65.13;96799.63;5023096;28;20384;-62
2021/06/19 06:18:11;;;;;;;8.55;4.72;;;;;;;25.20;63.22;96797.44;5030156;28;20037;-63
2021/06/19 06:20:37;;;;;;;10.13;4.72;;;;;;;25.97;60.69;96796.69;4999562;28;20137;-62
2021/06/19 06:23:03;;;;;;;9.55;4.60;;;;;;;26.30;59.19;96796.03;5029326;28;20041;-62
2021/06/19 06:25:29;;;;;;;10.20;4.00;;;;;;;26.72;57.91;96797.38;5040809;28;20051;-62
2021/06/19 06:27:56;;;;;;;11.38;4.45;;;;;;;28.26;52.75;96789.03;5035775;28;20037;-63
2021/06/19 06:30:22;;;;;;;7.32;4.25;;;;;;;27.21;53.44;96788.59;5041928;28;20787;-63
2021/06/19 06:32:48;;;;;;;11.40;3.63;;;;;;;27.56;53.86;96790.91;5029764;28;20057;-62
2021/06/19 06:35:13;;;;;;;15.10;4.70;;;;;;;28.12;52.07;96790.53;5031945;28;20041;-64
2021/06/19 06:37:40;;;;;;;6.97;3.58;;;;;;;28.32;51.68;96801.91;5025078;28;20037;-63
2021/06/19 06:40:08;;;;;;;9.55;4.60;;;;;;;26.24;55.88;96804.31;4999646;28;20316;-62
2021/06/19 06:42:34;;;;;;;12.35;4.20;;;;;;;26.18;57.78;96799.78;5030119;28;20053;-65
2021/06/19 06:45:00;;;;;;;7.00;3.55;;;;;;;27.28;54.65;96787.50;5027993;28;20127;-64
2021/06/19 06:47:25;;;;;;;6.38;3.50;;;;;;;27.19;54.91;96790.31;5029271;28;20699;-64
2021/06/19 06:49:51;;;;;;;8.85;3.70;;;;;;;28.40;52.46;96791.84;5036461;28;20045;-64
2021/06/19 06:52:16;;;;;;;10.50;4.45;;;;;;;27.69;53.28;96787.09;5027212;28;20168;-64
2021/06/19 06:54:43;;;;;;;9.25;3.95;;;;;;;28.56;51.25;96782.16;5035046;28;20512;-63
2021/06/19 06:57:09;;;;;;;9.02;4.20;;;;;;;28.79;49.43;96785.34;5037866;28;20045;-63
2021/06/19 06:59:35;;;;;;;7.43;3.97;;;;;;;29.26;48.63;96785.59;5041681;28;20590;-64
2021/06/19 07:02:01;;;;;;;5.80;3.63;;;;;;;27.70;51.86;96780.22;5023874;28;20044;-63
2021/06/19 07:04:27;;;;;;;12.75;4.35;;;;;;;28.65;49.93;96777.69;5008453;28;20398;-65
2021/06/19 07:06:52;;;;;;;8.93;4.45;;;;;;;28.22;49.89;96777.94;5028415;28;20045;-62
2021/06/19 07:09:18;;;;;;;8.80;3.83;;;;;;;28.68;49.79;96780.31;5029333;28;20218;-64
2021/06/19 07:11:43;;;;;;;9.95;4.70;;;;;;;29.73;46.37;96773.16;5034593;28;20053;-64
2021/06/19 07:14:09;;;;;;;8.55;3.78;;;;;;;30.61;44.33;96778.78;5028429;28;20037;-64
2021/06/19 07:16:34;;;;;;;10.82;3.95;;;;;;;31.48;42.16;96774.06;5042607;28;20061;-64
2021/06/19 07:19:00;;;;;;;7.75;3.75;;;;;;;30.53;44.31;96779.72;5041787;28;20082;-64
2021/06/19 07:21:29;;;;;;;8.57;3.88;;;;;;;31.38;42.72;96776.28;5024306;28;20045;-64
2021/06/19 07:23:55;;;;;;;8.95;4.30;;;;;;;28.51;48.74;96776.41;5035838;28;20429;-64
2021/06/19 07:26:20;;;;;;;8.85;4.40;;;;;;;27.71;51.24;96771.28;5033869;28;20041;-64
2021/06/19 07:28:46;;;;;;;8.50;4.03;;;;;;;29.39;46.95;96760.66;5030226;28;20052;-64
2021/06/19 07:31:12;;;;;;;10.05;3.70;;;;;;;28.77;48.82;96771.78;5027876;28;20041;-64
2021/06/19 07:33:38;;;;;;;12.40;4.53;;;;;;;27.17;53.86;96751.47;5017962;28;20057;-64
2021/06/19 07:36:04;;;;;;;13.68;4.82;;;;;;;27.12;54.04;96756.94;5020870;28;20047;-66
2021/06/19 07:38:31;;;;;;;13.35;4.30;;;;;;;28.58;49.53;96750.69;5014522;28;20044;-63
2021/06/19 07:40:57;;;;;;;9.35;4.47;;;;;;;27.16;53.76;96741.47;5030261;28;20045;-63
2021/06/19 07:43:23;;;;;;;11.70;4.88;;;;;;;27.08;54.70;96746.66;5023001;28;20071;-63
2021/06/19 07:45:49;;;;;;;15.32;4.88;;;;;;;27.69;51.40;96748.47;5038889;28;20398;-61
2021/06/19 07:48:14;;;;;;;13.95;5.05;;;;;;;27.49;52.66;96745.50;5023175;28;20037;-64
2021/06/19 07:50:41;;;;;;;9.10;4.18;;;;;;;27.50;53.40;96730.97;5023809;28;20442;-64
2021/06/19 07:53:07;;;;;;;11.88;4.60;;;;;;;27.22;53.56;96731.09;5027021;28;20497;-65
2021/06/19 07:55:33;;;;;;;9.52;4.25;;;;;;;27.07;53.31;96722.59;5038212;28;20355;-64
2021/06/19 07:57:59;;;;;;;10.27;4.25;;;;;;;27.29;52.30;96720.81;5032891;28;20124;-63
2021/06/19 08:00:25;;;;;;;13.35;4.85;;;;;;;27.09;51.92;96724.94;5026452;28;20563;-66
2021/06/19 08:02:50;;;;;;;8.65;4.22;;;;;;;27.25;52.76;96723.75;5041441;28;20052;-63
2021/06/19 08:05:16;;;;;;;9.48;4.07;;;;;;;28.98;49.67;96718.25;5026051;28;20033;-65
2021/06/19 08:07:41;;;;;;;9.60;3.95;;;;;;;28.34;50.53;96702.88;5029414;28;20041;-62
2021/06/19 08:10:09;;;;;;;9.05;4.30;;;;;;;27.24;52.07;96708.13;5034437;28;20041;-66
2021/06/19 08:12:35;;;;;;;10.63;4.20;;;;;;;27.27;51.30;96702.38;5038388;28;20114;-64
2021/06/19 08:15:02;;;;;;;15.82;5.22;;;;;;;27.96;50.33;96712.94;5040262;28;20045;-65
2021/06/19 08:17:28;;;;;;;7.97;4.65;;;;;;;27.02;51.70;96717.63;5028299;28;20532;-64
2021/06/19 08:19:53;;;;;;;14.05;4.93;;;;;;;27.87;51.30;96722.22;5027921;28;20041;-64
2021/06/19 08:22:19;;;;;;;11.30;4.60;;;;;;;28.67;49.44;96721.66;5006013;28;20509;-64
2021/06/19 08:24:47;;;;;;;10.55;4.88;;;;;;;28.12;50.78;96715.28;5038530;28;20037;-66
2021/06/19 08:27:13;;;;;;;9.75;4.80;;;;;;;28.03;51.24;96718.19;5039184;28;20227;-63
2021/06/19 08:29:39;;;;;;;11.25;4.70;;;;;;;28.75;49.77;96712.28;5042022;28;20038;-65
2021/06/19 08:32:08;;;;;;;11.95;5.13;;;;;;;29.63;47.54;96712.47;5014396;28;20076;-63
2021/06/19 08:34:34;;;;;;;15.40;4.65;;;;;;;29.25;50.99;96710.72;5035265;28;20050;-64
2021/06/19 08:36:59;;;;;;;13.63;5.13;;;;;;;30.34;47.86;96705.81;5040485;28;20490;-65
2021/06/19 08:39:25;;;;;;;11.82;4.97;;;;;;;30.66;47.21;96700.94;5026020;28;20045;-65
2021/06/19 08:41:55;;;;;;;11.15;5.10;;;;;;;30.81;47.14;96695.94;5009773;28;20048;-63
2021/06/19 08:44:22;;;;;;;12.48;4.78;;;;;;;31.36;46.24;96696.00;5014699;28;20041;-63
2021/06/19 08:46:51;;;;;;;13.93;5.88;;;;;;;32.22;42.57;96689.38;5009625;28;20070;-64
2021/06/19 08:49:17;;;;;;;9.88;5.30;;;;;;;31.09;44.79;96681.22;5010943;28;20042;-64
2021/06/19 08:51:44;;;;;;;19.10;5.20;;;;;;;31.70;43.14;96688.47;5016143;28;20228;-63
2021/06/19 08:54:09;;;;;;;15.32;5.93;;;;;;;30.47;46.84;96684.38;5019735;28;20052;-63
2021/06/19 08:56:35;;;;;;;11.10;5.45;;;;;;;32.19;43.35;96685.50;5031994;28;20048;-63
2021/06/19 08:59:01;;;;;;;12.45;5.60;;;;;;;30.68;44.45;96687.88;5033101;28;20033;-64
2021/06/19 09:01:27;;;;;;;18.02;6.10;;;;;;;30.03;47.60;96690.34;5039016;28;20072;-63
2021/06/19 09:03:52;;;;;;;12.05;5.57;;;;;;;30.40;46.51;96698.94;5046354;28;20182;-63
2021/06/19 09:06:18;;;;;;;15.93;5.38;;;;;;;31.54;44.64;96687.13;5039122;28;20136;-64
2021/06/19 09:09:06;;;;;;;12.30;5.45;;;;;;;31.92;42.95;96686.97;5039621;28;20059;-64
2021/06/19 09:11:38;;;;;;;12.85;4.90;;;;;;;32.96;41.81;96691.69;5013179;28;20060;-63
2021/06/19 09:14:06;;;;;;;15.02;6.05;;;;;;;33.36;40.72;96680.25;5019969;28;20129;-61
2021/06/19 09:16:31;;;;;;;11.48;5.30;;;;;;;32.85;41.12;96683.22;5026961;28;20712;-64
2021/06/19 09:18:57;;;;;;;10.82;5.38;;;;;;;32.81;41.35;96674.19;5030314;28;20080;-65
2021/06/19 09:21:35;;;;;;;14.90;5.38;;;;;;;32.87;40.83;96677.78;5019121;28;20633;-63
2021/06/19 09:24:01;;;;;;;14.55;5.75;;;;;;;33.11;40.35;96667.94;5024246;28;20083;-64
2021/06/19 09:26:32;;;;;;;15.23;5.95;;;;;;;33.16;40.32;96663.56;5024210;28;20045;-63
2021/06/19 09:29:09;;;;;;;12.38;5.95;;;;;;;30.19;46.29;96652.25;5016460;28;20118;-65
2021/06/19 09:31:40;;;;;;;16.63;6.05;;;;;;;29.33;48.80;96646.97;5034798;28;20065;-63
2021/06/19 09:34:18;;;;;;;15.95;6.30;;;;;;;30.08;48.17;96642.41;5039550;28;20057;-61
2021/06/19 09:36:45;;;;;;;12.98;6.20;;;;;;;28.84;50.22;96638.09;5046571;28;20049;-62
2021/06/19 09:39:14;;;;;;;11.90;6.30;;;;;;;28.46;51.70;96631.38;5045689;28;20059;-65
2021/06/19 09:41:42;;;;;;;19.93;6.50;;;;;;;28.64;51.37;96636.03;5048611;28;20048;-63
2021/06/19 09:44:08;;;;;;;16.27;6.00;;;;;;;29.07;49.36;96629.97;5039791;28;20292;-62
2021/06/19 09:46:34;;;;;;;14.25;6.00;;;;;;;29.43;49.27;96628.63;5036253;28;20040;-63
2021/06/19 09:49:10;;;;;;;14.07;5.93;;;;;;;30.34;46.82;96616.19;5027023;28;20040;-63
2021/06/19 09:51:36;;;;;;;21.67;6.22;;;;;;;31.54;44.55;96616.34;5024044;28;20199;-64
2021/06/19 09:54:04;;;;;;;17.35;6.82;;;;;;;29.88;46.44;96603.72;5035225;28;20127;-63
2021/06/19 09:56:43;;;;;;;12.70;6.43;;;;;;;28.47;50.09;96601.16;5005864;28;20055;-63
2021/06/19 09:59:17;;;;;;;15.25;6.63;;;;;;;28.46;49.17;96591.19;5024280;28;20113;-63
2021/06/19 10:01:43;;;;;;;21.50;7.22;;;;;;;28.43;49.32;96590.09;5027118;28;20063;-63
2021/06/19 10:04:09;;;;;;;16.52;6.60;;;;;;;28.53;47.45;96583.13;5006433;28;20038;-63
2021/06/19 10:06:36;;;;;;;17.77;6.07;;;;;;;29.04;46.09;96577.38;5020886;28;20125;-62
2021/06/19 10:09:02;;;;;;;15.63;6.25;;;;;;;28.77;46.26;96576.53;5018845;28;20115;-62
2021/06/19 10:11:29;;;;;;;23.50;9.18;;;;;;;28.97;46.68;96567.28;5000202;28;20045;-63
2021/06/19 10:13:57;;;;;;;25.23;6.85;;;;;;;29.05;47.86;96565.59;5031903;28;20060;-63
2021/06/19 10:16:24;;;;;;;14.05;5.57;;;;;;;29.44;46.90;96572.97;5024398;28;20632;-62
2021/06/19 10:18:52;;;;;;;15.40;6.60;;;;;;;29.15;47.63;96566.25;5017714;28;20386;-62
2021/06/19 10:21:18;;;;;;;17.90;6.68;;;;;;;28.84;45.41;96569.69;4999095;28;20041;-66
2021/06/19 10:23:44;;;;;;;14.55;6.45;;;;;;;28.67;46.56;96558.22;5031505;28;20541;-61
2021/06/19 10:26:10;;;;;;;19.58;6.50;;;;;;;29.14;47.41;96551.38;5025929;28;20041;-63
2021/06/19 10:28:41;;;;;;;17.17;6.10;;;;;;;28.68;46.55;96552.06;5030607;28;20080;-65
2021/06/19 10:31:07;;;;;;;21.08;6.68;;;;;;;29.06;46.76;96541.00;5016483;28;20128;-64
2021/06/19 10:33:35;;;;;;;20.48;6.35;;;;;;;29.34;46.03;96527.25;5029633;28;20513;-62
2021/06/19 10:36:08;;;;;;;23.38;5.40;;;;;;;29.44;45.19;96522.19;5003553;28;20491;-62
2021/06/19 10:38:56;;;;;;;14.27;4.80;;;;;;;29.30;43.25;96523.88;5024795;28;20054;-63
2021/06/19 10:41:43;;;;;;;14.25;6.00;;;;;;;29.61;45.22;96520.31;5023636;28;20064;-64
2021/06/19 10:44:09;;;;;;;17.63;5.50;;;;;;;29.48;43.30;96517.91;5016118;28;20120;-64
2021/06/19 10:46:36;;;;;;;17.67;5.30;;;;;;;29.83;41.67;96519.00;5034070;28;20052;-66
2021/06/19 10:49:20;;;;;;;21.40;5.85;;;;;;;29.81;42.75;96508.19;5029247;28;20079;-61
2021/06/19 10:51:45;;;;;;;18.70;5.30;;;;;;;29.96;43.83;96504.47;5027694;28;20065;-65
2021/06/19 10:54:18;;;;;;;16.88;5.40;;;;;;;29.40;44.25;96496.25;5017869;28;20080;-62
2021/06/19 10:56:53;;;;;;;14.57;5.60;;;;;;;29.89;43.74;96486.72;5022087;28;20091;-63
2021/06/19 10:59:31;;;;;;;18.75;6.03;;;;;;;29.61;44.43;96485.69;5014778;28;20418;-64
2021/06/19 11:02:03;;;;;;;13.57;5.47;;;;;;;29.81;43.10;96482.78;5022112;28;20033;-63
2021/06/19 11:04:34;;;;;;;14.90;4.85;;;;;;;29.71;44.01;96473.72;5023558;28;20490;-64
2021/06/19 11:07:00;;;;;;;13.05;5.32;;;;;;;29.50;43.32;96475.84;5003475;28;20038;-65
2021/06/19 11:09:45;;;;;;;13.68;5.40;;;;;;;29.37;44.27;96472.66;5013800;28;20048;-62
2021/06/19 11:12:29;;;;;;;13.75;5.18;;;;;;;29.78;43.14;96466.09;5002568;28;20052;-63
2021/06/19 11:15:04;;;;;;;13.13;4.63;;;;;;;29.85;44.33;96463.56;5026210;28;20053;-63
2021/06/19 11:17:32;;;;;;;21.00;5.97;;;;;;;30.08;42.09;96463.72;5025418;28;20041;-63
2021/06/19 11:20:02;;;;;;;12.80;5.25;;;;;;;29.76;42.95;96454.53;5022071;28;20136;-62
2021/06/19 11:22:53;;;;;;;15.13;4.32;;;;;;;29.81;44.16;96454.56;5018317;28;20044;-63
2021/06/19 11:25:53;;;;;;;13.15;4.82;;;;;;;29.97;41.03;96446.72;4997837;28;20136;-63
2021/06/19 11:28:19;;;;;;;18.70;5.45;;;;;;;29.79;41.68;96445.84;5023672;28;20049;-63
2021/06/19 11:31:02;;;;;;;11.23;4.72;;;;;;;29.94;41.78;96448.50;5037854;28;20041;-65